Time;durP1;ratioP1;P1;durP2;ratioP2;P2;SDS_P1;SDS_P2;PMS_P1;PMS_P2;Temp;Humidity;BMP_temperature;BMP_pressure;BME280_temperature;BME280_humidity;BME280_pressure;Samples;Min_cycle;Max_cycle;Signal;HPM_P1;HPM_P2
2023/06/12 00:01:44;;;;;;;6.40;3.40;;;;;;;15.09;64.62;101005.33;107392;1255;111596;-70
2023/06/12 00:04:13;;;;;;;6.60;3.80;;;;;;;15.10;64.56;101002.52;107371;1256;111053;-68
2023/06/12 00:06:42;;;;;;;9.80;3.70;;;;;;;15.11;64.53;101000.42;107346;1257;108548;-67
2023/06/12 00:09:12;;;;;;;7.30;3.60;;;;;;;15.10;64.60;101005.91;107345;1254;97916;-69
2023/06/12 00:11:41;;;;;;;7.20;4.10;;;;;;;15.09;64.50;101001.88;107407;1254;97700;-67
2023/06/12 00:14:11;;;;;;;10.50;3.80;;;;;;;15.04;64.63;101002.19;107378;1254;110955;-66
2023/06/12 00:16:39;;;;;;;9.50;4.30;;;;;;;14.96;65.09;101003.79;107282;1257;110142;-68
2023/06/12 00:19:08;;;;;;;10.00;4.10;;;;;;;14.91;65.29;101001.91;107290;1256;109428;-68
2023/06/12 00:21:37;;;;;;;10.70;3.90;;;;;;;14.89;65.70;100996.56;107313;1254;97828;-67
2023/06/12 00:24:08;;;;;;;12.50;4.30;;;;;;;14.84;65.66;100999.15;107366;1255;97835;-68
2023/06/12 00:26:38;;;;;;;7.60;4.20;;;;;;;14.82;65.73;101000.18;107378;1258;111326;-68
2023/06/12 00:29:06;;;;;;;11.70;4.40;;;;;;;14.79;65.79;100998.33;107401;1255;110250;-66
2023/06/12 00:31:35;;;;;;;8.20;3.90;;;;;;;14.76;65.88;100997.73;107318;1254;108584;-67
2023/06/12 00:34:03;;;;;;;10.70;3.90;;;;;;;14.69;65.74;100999.64;107408;1254;97902;-68
2023/06/12 00:36:32;;;;;;;10.40;3.40;;;;;;;14.69;65.89;101004.29;107262;1254;97727;-64
2023/06/12 00:39:01;;;;;;;9.90;4.00;;;;;;;14.72;66.04;101005.86;107339;1257;111663;-69
2023/06/12 00:41:30;;;;;;;9.10;3.70;;;;;;;14.68;65.99;101004.98;107426;1259;109858;-67
2023/06/12 00:43:58;;;;;;;9.50;4.40;;;;;;;14.67;66.18;101004.77;107384;1257;107514;-66
2023/06/12 00:46:27;;;;;;;7.70;4.00;;;;;;;14.67;66.52;100998.95;107373;1255;97927;-68
2023/06/12 00:48:56;;;;;;;9.70;4.00;;;;;;;14.65;66.47;100999.70;107431;1254;97927;-65
2023/06/12 00:51:28;;;;;;;11.00;3.60;;;;;;;14.64;66.36;101002.30;107393;1254;111797;-67
2023/06/12 00:53:57;;;;;;;6.50;3.50;;;;;;;14.59;66.14;101001.43;107043;1256;109861;-67
2023/06/12 00:56:27;;;;;;;8.70;3.70;;;;;;;14.58;66.31;101005.52;107219;1254;108372;-69
2023/06/12 00:58:55;;;;;;;14.00;3.60;;;;;;;14.61;66.19;101002.42;107333;1259;97697;-68
2023/06/12 01:01:25;;;;;;;13.60;3.80;;;;;;;14.62;66.35;101005.00;107395;1257;98504;-68
2023/06/12 01:03:58;;;;;;;7.60;3.50;;;;;;;14.64;66.56;101004.88;107406;1258;111366;-67
2023/06/12 01:06:41;;;;;;;12.90;3.10;;;;;;;14.62;66.37;101009.17;107359;1254;110101;-68
2023/06/12 01:09:34;;;;;;;8.70;3.30;;;;;;;14.58;66.39;101004.59;107367;1255;108076;-69
2023/06/12 01:12:04;;;;;;;11.50;3.10;;;;;;;14.60;66.51;101000.80;107387;1254;97829;-66
2023/06/12 01:14:33;;;;;;;5.80;3.10;;;;;;;14.60;66.39;100996.77;107273;1256;98353;-68
2023/06/12 01:17:02;;;;;;;4.20;3.10;;;;;;;14.63;66.37;100998.63;107394;1254;112120;-70
2023/06/12 01:19:31;;;;;;;11.70;3.30;;;;;;;14.66;66.78;100999.61;107423;1256;108972;-68
2023/06/12 01:22:05;;;;;;;8.60;3.20;;;;;;;14.60;66.65;101003.84;107355;1257;108909;-69
2023/06/12 01:24:53;;;;;;;8.70;2.90;;;;;;;14.52;66.51;101002.02;107151;1255;97896;-67
2023/06/12 01:27:22;;;;;;;9.90;3.20;;;;;;;14.54;66.59;101005.99;107391;1254;97809;-67
2023/06/12 01:29:56;;;;;;;4.90;2.90;;;;;;;14.57;66.93;101007.51;107369;1257;111856;-69
2023/06/12 01:32:26;;;;;;;7.30;3.00;;;;;;;14.54;66.86;101010.30;107331;1257;109150;-67
2023/06/12 01:34:59;;;;;;;6.40;3.50;;;;;;;14.52;67.14;101011.83;107346;1254;106778;-67
2023/06/12 01:37:53;;;;;;;4.40;2.80;;;;;;;14.49;66.97;101016.77;107394;1259;97903;-67
2023/06/12 01:40:27;;;;;;;8.50;2.90;;;;;;;14.48;67.18;101013.29;107402;1257;97808;-69
2023/06/12 01:42:55;;;;;;;8.00;2.50;;;;;;;14.48;67.20;101010.09;107280;1257;112467;-70
2023/06/12 01:45:25;;;;;;;7.00;2.50;;;;;;;14.47;67.32;101008.20;107353;1255;109318;-67
2023/06/12 01:47:53;;;;;;;7.80;3.30;;;;;;;14.47;67.56;101007.63;107256;1255;108492;-67
2023/06/12 01:50:22;;;;;;;8.80;2.30;;;;;;;14.43;67.34;101011.34;107379;1256;97705;-68
2023/06/12 01:52:51;;;;;;;9.30;2.70;;;;;;;14.42;67.41;101011.98;107393;1254;97707;-67
2023/06/12 01:55:21;;;;;;;7.30;2.70;;;;;;;14.40;67.91;101015.38;107384;1254;111706;-68
2023/06/12 01:57:52;;;;;;;7.40;2.40;;;;;;;14.33;67.85;101016.61;107390;1254;109899;-68
2023/06/12 02:00:30;;;;;;;6.10;2.60;;;;;;;14.31;68.12;101018.07;107372;1259;108321;-67
2023/06/12 02:02:58;;;;;;;4.80;2.40;;;;;;;14.28;68.31;101020.75;107460;1254;97859;-68
2023/06/12 02:05:30;;;;;;;6.80;2.30;;;;;;;14.21;68.35;101020.82;107376;1256;97822;-66
2023/06/12 02:07:58;;;;;;;10.50;2.70;;;;;;;14.14;68.45;101028.80;107293;1256;112031;-69
2023/06/12 02:10:26;;;;;;;6.50;2.60;;;;;;;14.07;68.38;101029.34;107382;1254;108511;-66
2023/06/12 02:12:55;;;;;;;7.30;1.90;;;;;;;14.03;68.42;101027.58;107357;1255;108555;-66
2023/06/12 02:15:24;;;;;;;8.40;1.80;;;;;;;14.03;68.69;101029.30;107349;1257;97909;-66
2023/06/12 02:17:54;;;;;;;8.50;2.20;;;;;;;14.04;68.71;101031.36;107371;1257;97729;-67
2023/06/12 02:20:22;;;;;;;9.80;2.40;;;;;;;14.05;68.88;101030.17;107356;1255;111657;-67
2023/06/12 02:22:50;;;;;;;7.20;4.10;;;;;;;14.07;69.51;101033.66;107261;1256;109266;-69
2023/06/12 02:25:19;;;;;;;6.90;2.20;;;;;;;14.02;69.23;101040.30;107198;1257;108156;-65
2023/06/12 02:27:48;;;;;;;2.60;1.90;;;;;;;14.00;69.33;101039.91;107239;1257;97840;-66
2023/06/12 02:30:18;;;;;;;5.80;2.30;;;;;;;14.02;69.53;101043.72;107264;1257;97886;-67
2023/06/12 02:32:49;;;;;;;7.90;2.90;;;;;;;13.99;69.96;101041.63;107385;1257;111864;-67
2023/06/12 02:35:18;;;;;;;8.20;3.70;;;;;;;13.93;70.11;101046.15;107264;1254;109048;-65
2023/06/12 02:37:46;;;;;;;4.70;1.70;;;;;;;13.87;70.01;101048.73;107121;1255;107655;-67
2023/06/12 02:40:14;;;;;;;5.00;1.80;;;;;;;13.84;70.00;101046.50;107370;1256;97829;-67
2023/06/12 02:42:43;;;;;;;12.50;2.10;;;;;;;13.86;70.20;101047.23;107304;1257;97931;-68
2023/06/12 02:45:12;;;;;;;8.00;1.70;;;;;;;13.86;70.30;101048.71;107266;1255;111975;-65
2023/06/12 02:47:40;;;;;;;6.60;2.00;;;;;;;13.84;70.07;101048.16;107332;1257;110755;-68
2023/06/12 02:50:10;;;;;;;6.20;1.70;;;;;;;13.84;70.05;101050.09;107362;1256;108004;-68
2023/06/12 02:52:50;;;;;;;2.00;1.60;;;;;;;13.89;70.11;101052.02;107408;1254;97933;-67
2023/06/12 02:55:19;;;;;;;2.20;1.30;;;;;;;13.90;70.20;101057.85;107410;1254;97717;-67
2023/06/12 02:57:48;;;;;;;4.30;1.20;;;;;;;13.88;70.54;101055.33;107289;1255;112524;-67
2023/06/12 03:00:17;;;;;;;11.20;2.80;;;;;;;13.85;70.45;101057.92;107286;1259;109482;-67
2023/06/12 03:02:47;;;;;;;6.80;1.60;;;;;;;13.85;70.95;101062.13;107305;1255;108232;-67
2023/06/12 03:05:17;;;;;;;4.10;1.70;;;;;;;13.84;70.72;101061.16;107489;1254;97828;-68
2023/06/12 03:07:46;;;;;;;4.00;1.80;;;;;;;13.86;70.49;101059.71;107267;1254;97785;-68
2023/06/12 03:10:17;;;;;;;4.70;1.60;;;;;;;13.88;70.52;101057.34;107335;1258;112108;-66
2023/06/12 03:12:46;;;;;;;9.00;1.90;;;;;;;13.90;70.57;101061.10;107517;1254;110029;-70
2023/06/12 03:15:15;;;;;;;9.20;1.90;;;;;;;13.89;70.56;101062.05;107457;1254;108043;-67
2023/06/12 03:17:43;;;;;;;3.10;1.30;;;;;;;13.88;70.86;101059.69;107519;1254;97912;-67
2023/06/12 03:20:14;;;;;;;7.10;3.80;;;;;;;13.81;70.70;101063.76;107479;1254;97661;-67
2023/06/12 03:22:43;;;;;;;6.60;2.90;;;;;;;13.82;70.92;101062.11;107490;1254;111024;-66
2023/06/12 03:25:12;;;;;;;3.20;1.60;;;;;;;13.79;70.83;101067.02;107489;1257;109579;-69
2023/06/12 03:27:41;;;;;;;2.00;1.10;;;;;;;13.79;70.81;101067.90;107470;1254;107764;-68
2023/06/12 03:30:10;;;;;;;2.70;1.10;;;;;;;13.80;70.63;101072.39;107178;1254;97748;-67
2023/06/12 03:32:39;;;;;;;2.60;1.00;;;;;;;13.82;70.54;101072.50;107483;1254;97806;-67
2023/06/12 03:35:07;;;;;;;3.50;1.00;;;;;;;13.84;70.51;101074.98;107301;1253;111957;-69
2023/06/12 03:37:37;;;;;;;1.40;1.10;;;;;;;13.82;70.43;101079.21;107524;1254;109226;-66
2023/06/12 03:40:08;;;;;;;3.70;1.20;;;;;;;13.84;70.25;101083.54;107478;1254;107363;-69
2023/06/12 03:42:39;;;;;;;1.90;0.90;;;;;;;13.86;70.34;101090.01;107366;1256;97883;-68
2023/06/12 03:45:10;;;;;;;2.80;1.00;;;;;;;13.86;70.29;101090.55;107454;1256;97855;-70
2023/06/12 03:47:39;;;;;;;5.00;2.20;;;;;;;13.88;70.55;101089.74;107305;1254;111844;-72
2023/06/12 03:50:10;;;;;;;7.00;1.20;;;;;;;13.86;70.35;101093.70;107399;1257;110085;-72
2023/06/12 03:52:43;;;;;;;3.30;1.00;;;;;;;13.89;70.44;101094.49;107449;1254;108264;-70
2023/06/12 03:55:24;;;;;;;4.20;1.10;;;;;;;13.92;70.28;101096.92;107270;1254;97848;-75
2023/06/12 03:57:56;;;;;;;10.10;1.20;;;;;;;13.90;70.41;101097.98;107302;1259;97777;-71
2023/06/12 04:00:24;;;;;;;1.30;0.70;;;;;;;13.86;70.38;101095.05;107450;1254;111589;-68
2023/06/12 04:02:54;;;;;;;1.10;1.00;;;;;;;13.87;70.44;101098.54;107278;1254;110052;-70
2023/06/12 04:05:23;;;;;;;4.70;1.80;;;;;;;13.88;70.67;101103.50;107278;1254;107710;-69
2023/06/12 04:07:51;;;;;;;4.90;2.80;;;;;;;13.85;70.77;101101.58;107415;1254;97880;-67
2023/06/12 04:10:20;;;;;;;9.20;3.20;;;;;;;13.84;70.73;101109.42;107417;1254;97842;-68
2023/06/12 04:12:49;;;;;;;2.60;1.30;;;;;;;13.80;70.37;101109.09;107493;1254;111256;-68
2023/06/12 04:15:19;;;;;;;3.90;1.50;;;;;;;13.82;70.39;101109.61;107464;1254;109145;-68
2023/06/12 04:17:48;;;;;;;6.70;1.30;;;;;;;13.85;70.32;101107.89;107473;1259;108275;-68
2023/06/12 04:20:17;;;;;;;3.40;0.80;;;;;;;13.86;70.48;101111.55;107447;1254;97991;-68
2023/06/12 04:22:47;;;;;;;3.30;1.10;;;;;;;13.86;70.37;101107.97;107469;1254;97710;-68
2023/06/12 04:25:15;;;;;;;2.10;0.90;;;;;;;13.85;70.24;101103.37;107499;1254;112938;-68
2023/06/12 04:27:44;;;;;;;2.00;0.90;;;;;;;13.85;70.44;101104.82;107272;1259;110886;-68
2023/06/12 04:30:16;;;;;;;24.50;1.70;;;;;;;13.84;70.38;101104.80;107471;1254;107889;-74
2023/06/12 04:32:45;;;;;;;139.10;10.70;;;;;;;13.83;70.63;101107.02;107269;1257;97852;-71
2023/06/12 04:35:19;;;;;;;5.60;1.40;;;;;;;13.82;70.91;101112.35;107445;1254;98353;-70
2023/06/12 04:37:48;;;;;;;3.70;1.00;;;;;;;13.82;70.76;101115.45;107213;1254;111359;-68
2023/06/12 04:40:17;;;;;;;3.60;0.90;;;;;;;13.81;70.89;101110.67;107305;1254;109862;-68
2023/06/12 04:42:46;;;;;;;1.10;0.80;;;;;;;13.82;71.01;101108.37;107434;1254;107778;-71
2023/06/12 04:45:18;;;;;;;1.00;0.70;;;;;;;13.84;71.00;101106.05;107301;1254;97708;-69
2023/06/12 04:47:47;;;;;;;3.40;1.80;;;;;;;13.86;70.99;101105.78;107279;1254;97706;-69
2023/06/12 04:50:16;;;;;;;5.40;2.80;;;;;;;13.91;70.94;101106.98;107478;1254;112296;-67
2023/06/12 04:52:47;;;;;;;5.50;2.10;;;;;;;13.95;70.76;101107.54;107464;1259;109777;-68
2023/06/12 04:55:22;;;;;;;8.20;1.10;;;;;;;13.99;70.78;101104.91;107374;1256;107580;-71
2023/06/12 04:57:52;;;;;;;7.70;1.20;;;;;;;14.02;70.61;101108.55;107453;1254;97918;-69
2023/06/12 05:00:25;;;;;;;3.40;1.10;;;;;;;14.04;70.35;101105.38;107396;1254;97890;-70
2023/06/12 05:02:55;;;;;;;1.60;0.80;;;;;;;14.07;70.24;101105.08;107444;1254;112288;-71
2023/06/12 05:05:24;;;;;;;4.40;1.10;;;;;;;14.06;70.08;101104.63;107411;1254;108702;-69
2023/06/12 05:07:53;;;;;;;0.70;0.70;;;;;;;14.03;70.00;101107.57;107368;1255;107909;-69
2023/06/12 05:10:22;;;;;;;8.30;1.00;;;;;;;13.99;70.10;101109.08;107356;1255;97829;-68
2023/06/12 05:12:51;;;;;;;2.20;1.30;;;;;;;13.92;70.08;101114.21;107483;1254;97716;-67
2023/06/12 05:15:19;;;;;;;15.80;1.60;;;;;;;13.92;70.15;101114.41;107368;1254;111407;-69
2023/06/12 05:17:47;;;;;;;355.40;16.10;;;;;;;13.94;70.12;101121.08;107477;1254;108697;-68
2023/06/12 05:20:16;;;;;;;111.90;5.70;;;;;;;13.98;70.18;101123.95;107436;1254;108778;-68
2023/06/12 05:22:45;;;;;;;20.80;1.30;;;;;;;14.07;70.18;101125.05;107419;1254;97904;-67
2023/06/12 05:25:15;;;;;;;5.60;3.40;;;;;;;14.15;70.01;101127.59;107432;1254;98356;-68
2023/06/12 05:27:43;;;;;;;2.40;1.40;;;;;;;14.18;69.77;101127.94;107356;1257;111199;-69
2023/06/12 05:30:15;;;;;;;4.20;1.00;;;;;;;14.17;69.62;101128.80;107396;1256;109722;-69
2023/06/12 05:32:43;;;;;;;4.40;1.50;;;;;;;14.21;69.95;101135.20;107269;1255;107738;-69
2023/06/12 05:35:13;;;;;;;5.30;1.10;;;;;;;14.25;69.86;101131.23;107229;1257;97921;-68
2023/06/12 05:37:42;;;;;;;4.30;1.20;;;;;;;14.23;69.69;101132.69;107434;1254;97682;-69
2023/06/12 05:40:13;;;;;;;5.70;0.90;;;;;;;14.20;69.54;101134.44;107475;1254;111896;-70
2023/06/12 05:42:44;;;;;;;0.90;0.50;;;;;;;14.13;69.40;101133.92;107390;1254;109546;-68
2023/06/12 05:45:12;;;;;;;0.70;0.60;;;;;;;14.16;69.67;101130.88;107387;1254;107856;-70
2023/06/12 05:47:42;;;;;;;2.10;0.50;;;;;;;14.24;69.20;101126.34;107319;1254;97922;-68
2023/06/12 05:50:11;;;;;;;2.20;0.60;;;;;;;14.19;68.90;101131.49;107399;1254;98363;-69
2023/06/12 05:52:40;;;;;;;0.90;0.50;;;;;;;14.19;69.27;101128.98;107318;1258;112194;-68
2023/06/12 05:55:11;;;;;;;5.90;0.90;;;;;;;14.23;69.24;101125.98;107474;1254;109358;-68
2023/06/12 05:57:43;;;;;;;1.50;0.70;;;;;;;14.34;69.31;101129.60;107229;1254;106349;-74
2023/06/12 06:00:13;;;;;;;2.40;0.50;;;;;;;14.42;69.01;101121.44;107383;1254;97855;-68
2023/06/12 06:02:45;;;;;;;2.60;0.70;;;;;;;14.46;68.87;101123.40;107397;1254;97837;-70
2023/06/12 06:05:30;;;;;;;2.10;0.60;;;;;;;14.51;68.60;101119.66;107402;1259;112043;-68
2023/06/12 06:08:02;;;;;;;15.00;1.70;;;;;;;14.53;68.08;101119.41;107260;1257;109528;-70
2023/06/12 06:10:31;;;;;;;3.70;0.70;;;;;;;14.43;67.79;101115.93;107232;1257;108101;-70
2023/06/12 06:13:02;;;;;;;1.20;0.80;;;;;;;14.42;67.85;101114.45;107333;1259;97912;-72
2023/06/12 06:15:30;;;;;;;4.90;0.60;;;;;;;14.41;67.66;101110.16;107386;1257;97694;-73
2023/06/12 06:17:59;;;;;;;9.30;1.10;;;;;;;14.45;67.53;101106.98;107273;1255;111429;-68
2023/06/12 06:20:35;;;;;;;5.20;1.00;;;;;;;14.45;67.26;101113.20;107379;1257;109988;-72
2023/06/12 06:23:05;;;;;;;2.10;0.90;;;;;;;14.43;67.22;101115.45;106921;1263;108261;-70
2023/06/12 06:25:35;;;;;;;5.90;1.00;;;;;;;14.44;67.19;101117.32;107035;1255;97864;-69
2023/06/12 06:28:05;;;;;;;2.50;1.20;;;;;;;14.49;67.08;101116.45;107370;1258;97732;-73
2023/06/12 06:30:33;;;;;;;0.80;0.60;;;;;;;14.53;67.10;101112.10;107385;1258;111543;-71
2023/06/12 06:33:03;;;;;;;3.10;0.80;;;;;;;14.58;67.16;101114.66;106942;1254;111240;-71
2023/06/12 06:35:32;;;;;;;2.20;0.80;;;;;;;14.62;66.82;101114.45;107211;1258;107829;-70
2023/06/12 06:38:07;;;;;;;4.70;1.00;;;;;;;14.70;66.92;101113.45;107212;1257;97691;-71
2023/06/12 06:40:35;;;;;;;4.00;0.90;;;;;;;14.80;66.72;101113.91;107362;1257;99117;-70
2023/06/12 06:43:04;;;;;;;4.30;0.90;;;;;;;14.89;66.37;101113.92;107350;1259;112450;-70
2023/06/12 06:45:43;;;;;;;1.70;0.60;;;;;;;14.93;65.33;101116.63;107353;1257;109190;-71
2023/06/12 06:48:15;;;;;;;3.70;1.00;;;;;;;14.96;65.33;101118.25;107346;1259;108502;-73
2023/06/12 06:50:44;;;;;;;3.80;1.30;;;;;;;15.00;64.39;101111.38;106974;1254;97839;-71
2023/06/12 06:53:12;;;;;;;1.90;0.80;;;;;;;14.99;64.17;101113.46;107220;1254;97885;-69
2023/06/12 06:55:42;;;;;;;2.40;1.50;;;;;;;14.97;64.24;101115.58;107234;1259;111788;-68
2023/06/12 06:58:11;;;;;;;6.50;1.10;;;;;;;14.98;64.38;101117.71;107300;1255;110359;-71
2023/06/12 07:00:40;;;;;;;6.30;1.50;;;;;;;15.02;64.70;101116.57;107285;1254;107754;-68
2023/06/12 07:03:08;;;;;;;3.50;0.80;;;;;;;15.15;64.68;101116.33;107395;1258;97813;-69
2023/06/12 07:05:39;;;;;;;3.20;0.70;;;;;;;15.22;64.57;101116.17;107381;1254;97678;-68
2023/06/12 07:08:09;;;;;;;3.10;0.60;;;;;;;15.22;64.55;101117.12;107367;1254;111730;-70
2023/06/12 07:10:38;;;;;;;2.10;0.80;;;;;;;15.26;64.57;101123.58;107400;1254;110884;-66
2023/06/12 07:13:09;;;;;;;1.70;0.50;;;;;;;15.32;64.44;101121.10;107228;1259;108431;-70
2023/06/12 07:15:44;;;;;;;3.60;0.60;;;;;;;15.38;64.37;101122.14;107413;1254;97714;-69
2023/06/12 07:18:13;;;;;;;4.50;0.60;;;;;;;15.35;64.08;101123.73;107315;1259;98343;-71
2023/06/12 07:20:43;;;;;;;1.50;0.60;;;;;;;15.27;64.25;101122.86;107446;1254;112085;-69
2023/06/12 07:23:11;;;;;;;2.70;0.80;;;;;;;15.25;64.21;101129.95;107285;1254;108560;-73
2023/06/12 07:25:39;;;;;;;20.20;1.10;;;;;;;15.20;64.10;101134.66;107445;1258;108181;-70
2023/06/12 07:28:08;;;;;;;3.10;0.90;;;;;;;15.12;64.27;101133.27;107378;1254;97960;-71
2023/06/12 07:30:37;;;;;;;1.60;0.60;;;;;;;15.05;64.59;101135.40;107350;1254;97755;-69
2023/06/12 07:33:06;;;;;;;5.50;0.80;;;;;;;14.93;64.84;101133.22;107354;1255;111554;-70
2023/06/12 07:35:35;;;;;;;4.60;0.70;;;;;;;14.83;65.15;101130.80;107404;1254;110558;-70
2023/06/12 07:38:04;;;;;;;4.20;0.90;;;;;;;14.83;65.61;101128.27;107393;1254;107818;-70
2023/06/12 07:40:33;;;;;;;3.00;0.90;;;;;;;14.72;65.72;101135.27;107457;1258;97879;-70
2023/06/12 07:43:02;;;;;;;1.70;0.50;;;;;;;14.68;65.99;101142.54;107406;1254;98167;-71
2023/06/12 07:45:33;;;;;;;3.00;0.80;;;;;;;14.71;65.97;101142.42;107459;1254;110651;-70
2023/06/12 07:48:03;;;;;;;6.90;0.80;;;;;;;14.74;65.80;101143.41;107404;1254;109589;-72
2023/06/12 07:50:39;;;;;;;8.40;1.50;;;;;;;14.82;65.51;101146.20;107434;1260;107621;-68
2023/06/12 07:53:16;;;;;;;1.40;0.50;;;;;;;14.95;65.51;101145.43;107437;1258;97828;-69
2023/06/12 07:56:06;;;;;;;5.60;0.60;;;;;;;15.07;64.75;101140.08;107342;1254;97921;-70
2023/06/12 07:58:35;;;;;;;0.80;0.70;;;;;;;15.11;64.44;101141.14;107448;1258;112225;-69
2023/06/12 08:01:05;;;;;;;2.50;0.90;;;;;;;15.12;64.27;101136.66;106693;1255;799359;-71
2023/06/12 08:03:38;;;;;;;1.70;1.20;;;;;;;15.13;63.90;101137.48;107402;1254;108719;-68
2023/06/12 08:06:11;;;;;;;2.80;1.50;;;;;;;15.12;63.78;101140.52;107428;1259;97909;-67
2023/06/12 08:08:46;;;;;;;2.70;1.00;;;;;;;15.15;64.00;101144.51;107501;1254;97841;-70
2023/06/12 08:11:17;;;;;;;3.40;1.10;;;;;;;15.24;63.95;101143.60;107300;1260;111246;-68
2023/06/12 08:13:49;;;;;;;3.80;1.30;;;;;;;15.38;63.68;101142.20;107454;1259;110466;-69
2023/06/12 08:16:23;;;;;;;7.00;1.30;;;;;;;15.43;63.42;101142.91;107456;1254;108585;-67
2023/06/12 08:18:53;;;;;;;5.60;0.90;;;;;;;15.47;63.38;101139.08;107426;1260;97912;-69
2023/06/12 08:21:25;;;;;;;7.70;1.50;;;;;;;15.48;63.30;101139.83;107413;1257;97711;-69
2023/06/12 08:23:53;;;;;;;1.60;0.80;;;;;;;15.47;62.92;101137.66;107448;1254;111297;-71
2023/06/12 08:26:28;;;;;;;36.30;7.90;;;;;;;15.38;62.81;101143.31;107447;1260;109603;-71
2023/06/12 08:28:57;;;;;;;3.20;1.10;;;;;;;15.44;63.17;101139.20;107287;1260;109048;-70
2023/06/12 08:31:33;;;;;;;7.30;0.90;;;;;;;15.61;62.76;101137.44;107477;1258;97815;-70
2023/06/12 08:34:02;;;;;;;1.70;0.70;;;;;;;15.78;62.19;101134.39;107346;1259;98318;-69
2023/06/12 08:36:30;;;;;;;5.80;2.70;;;;;;;15.93;61.83;101133.94;107458;1259;112778;-67
2023/06/12 08:38:58;;;;;;;5.30;1.10;;;;;;;16.11;61.22;101131.54;107409;1254;108739;-68
2023/06/12 08:41:30;;;;;;;4.10;1.10;;;;;;;16.30;60.91;101136.79;107344;1255;107467;-70
2023/06/12 08:44:00;;;;;;;11.80;4.10;;;;;;;16.36;59.85;101135.34;107456;1254;97830;-70
2023/06/12 08:46:41;;;;;;;6.50;2.70;;;;;;;16.35;59.81;101130.05;107426;1254;97841;-75
2023/06/12 08:49:15;;;;;;;3.70;1.00;;;;;;;16.51;59.42;101127.81;107228;1260;112496;-71
2023/06/12 08:51:52;;;;;;;2.00;0.70;;;;;;;16.67;59.54;101129.54;107397;1258;110073;-69
2023/06/12 08:54:21;;;;;;;6.70;1.40;;;;;;;16.76;58.67;101129.28;107378;1260;107977;-70
2023/06/12 08:56:51;;;;;;;2.80;0.60;;;;;;;16.73;57.98;101133.01;107385;1258;97832;-71
2023/06/12 08:59:23;;;;;;;8.10;1.40;;;;;;;16.55;58.48;101138.99;107351;1259;97893;-72
2023/06/12 09:01:55;;;;;;;5.30;0.90;;;;;;;16.43;58.50;101140.27;107373;1259;112243;-75
2023/06/12 09:04:48;;;;;;;4.80;2.10;;;;;;;16.35;58.96;101142.20;107345;1257;110187;-71
2023/06/12 09:07:18;;;;;;;4.80;1.20;;;;;;;16.48;58.76;101140.61;107195;1262;107547;-72
2023/06/12 09:09:47;;;;;;;1.40;1.00;;;;;;;16.52;58.53;101137.29;107388;1254;97842;-72
2023/06/12 09:12:15;;;;;;;2.40;0.80;;;;;;;16.49;58.32;101139.79;107381;1254;97800;-69
2023/06/12 09:14:48;;;;;;;3.50;0.90;;;;;;;16.48;58.32;101137.55;107351;1255;113070;-71
2023/06/12 09:17:17;;;;;;;2.20;0.70;;;;;;;16.47;58.66;101140.37;107384;1258;109188;-70
2023/06/12 09:19:48;;;;;;;1.00;0.50;;;;;;;16.55;58.52;101137.54;107409;1255;108663;-69
2023/06/12 09:22:16;;;;;;;1.20;0.60;;;;;;;16.68;58.12;101132.33;107452;1254;97806;-72
2023/06/12 09:24:47;;;;;;;2.10;0.80;;;;;;;16.81;57.62;101137.94;107380;1254;97678;-72
2023/06/12 09:27:21;;;;;;;3.10;0.80;;;;;;;16.83;57.16;101135.02;107384;1254;111313;-71
2023/06/12 09:29:49;;;;;;;;;;;;;;;16.83;57.36;101136.14;107334;1254;111092;-69
2023/06/12 09:32:17;;;;;;;1.40;0.50;;;;;;;16.88;56.73;101142.67;107346;1254;108559;-71
2023/06/12 09:34:49;;;;;;;0.50;0.50;;;;;;;16.93;56.46;101138.70;107353;1254;97938;-72
2023/06/12 09:37:18;;;;;;;5.40;0.80;;;;;;;16.88;56.60;101142.80;107386;1260;97682;-69
2023/06/12 09:39:46;;;;;;;5.80;0.80;;;;;;;16.87;56.49;101143.32;107393;1254;112061;-70
2023/06/12 09:42:17;;;;;;;9.80;1.00;;;;;;;16.88;56.32;101147.12;107411;1260;109909;-68
2023/06/12 09:44:45;;;;;;;2.10;0.70;;;;;;;16.82;56.90;101150.21;107342;1254;108025;-68
2023/06/12 09:47:15;;;;;;;3.00;0.70;;;;;;;16.78;57.09;101150.20;107385;1255;97813;-69
2023/06/12 09:49:46;;;;;;;2.70;1.10;;;;;;;16.77;57.04;101153.95;107348;1254;98424;-68
2023/06/12 09:52:15;;;;;;;2.40;0.50;;;;;;;16.74;56.97;101156.45;107344;1258;113175;-69
2023/06/12 09:54:46;;;;;;;5.10;0.80;;;;;;;16.62;57.13;101155.06;107351;1255;109546;-69
2023/06/12 09:57:15;;;;;;;1.90;1.00;;;;;;;16.60;57.27;101156.31;107389;1258;106861;-68
2023/06/12 09:59:46;;;;;;;1.80;0.80;;;;;;;16.71;57.20;101151.68;107384;1256;97915;-69
2023/06/12 10:02:16;;;;;;;5.40;0.70;;;;;;;16.84;57.09;101156.16;107440;1254;98450;-69
2023/06/12 10:04:44;;;;;;;1.20;0.80;;;;;;;16.86;56.78;101160.40;107402;1254;111936;-68
2023/06/12 10:07:23;;;;;;;1.60;0.60;;;;;;;16.85;56.81;101158.36;107349;1254;110144;-69
2023/06/12 10:09:51;;;;;;;0.90;0.50;;;;;;;16.74;56.92;101165.52;107374;1254;107633;-71
2023/06/12 10:12:21;;;;;;;0.60;0.40;;;;;;;16.72;56.53;101160.83;107337;1254;97979;-75
2023/06/12 10:14:52;;;;;;;6.20;0.70;;;;;;;16.60;56.42;101157.60;107400;1254;98356;-69
2023/06/12 10:17:22;;;;;;;2.30;0.70;;;;;;;16.51;56.93;101156.96;107401;1254;111030;-69
2023/06/12 10:19:54;;;;;;;1.30;0.60;;;;;;;16.53;57.14;101158.92;107377;1254;110602;-70
2023/06/12 10:22:22;;;;;;;0.90;0.40;;;;;;;16.54;57.23;101165.27;107434;1255;108816;-69
2023/06/12 10:24:52;;;;;;;3.80;0.50;;;;;;;16.51;57.26;101157.17;107362;1257;97668;-71
2023/06/12 10:27:21;;;;;;;1.80;0.70;;;;;;;16.47;57.16;101159.78;107371;1255;97858;-66
2023/06/12 10:29:58;;;;;;;3.40;0.80;;;;;;;16.33;57.30;101156.76;107431;1253;112336;-69
2023/06/12 10:32:31;;;;;;;6.70;0.70;;;;;;;16.27;57.67;101161.35;107397;1254;110023;-70
2023/06/12 10:35:03;;;;;;;3.60;0.50;;;;;;;16.18;57.79;101155.28;107412;1254;105806;-69
2023/06/12 10:37:39;;;;;;;2.60;0.80;;;;;;;16.17;57.89;101157.31;107364;1254;97847;-67
2023/06/12 10:40:12;;;;;;;0.60;0.50;;;;;;;16.16;58.18;101157.84;107429;1254;98430;-70
2023/06/12 10:42:53;;;;;;;0.80;0.30;;;;;;;16.20;58.23;101151.59;107374;1257;111926;-69
2023/06/12 10:45:29;;;;;;;2.00;0.40;;;;;;;16.27;58.34;101151.14;107348;1255;109463;-68
2023/06/12 10:48:09;;;;;;;5.70;0.50;;;;;;;16.31;58.20;101147.90;107352;1257;107252;-70
2023/06/12 10:50:53;;;;;;;1.50;0.70;;;;;;;16.33;57.93;101150.41;107365;1254;97951;-69
2023/06/12 10:53:29;;;;;;;2.90;0.70;;;;;;;16.31;58.11;101145.92;107402;1255;97697;-69
2023/06/12 10:56:08;;;;;;;0.40;0.40;;;;;;;16.21;58.42;101149.27;107246;1254;111117;-70
2023/06/12 10:58:41;;;;;;;10.80;0.80;;;;;;;16.12;58.82;101152.10;107333;1255;110015;-70
2023/06/12 11:01:13;;;;;;;3.40;0.90;;;;;;;15.99;58.83;101158.35;107360;1257;108042;-71
2023/06/12 11:03:43;;;;;;;0.40;0.40;;;;;;;15.85;59.07;101154.15;107377;1254;97943;-70
2023/06/12 11:06:20;;;;;;;0.50;0.40;;;;;;;15.79;59.24;101150.63;107383;1254;97719;-71
2023/06/12 11:08:48;;;;;;;0.80;0.50;;;;;;;15.79;59.55;101154.52;107369;1258;112004;-69
2023/06/12 11:11:17;;;;;;;16.90;1.40;;;;;;;15.87;59.66;101150.02;107295;1257;110032;-70
2023/06/12 11:13:47;;;;;;;2.30;0.50;;;;;;;15.89;59.45;101147.99;107247;1257;108784;-70
2023/06/12 11:16:19;;;;;;;1.40;0.70;;;;;;;15.94;59.32;101141.80;107386;1254;97884;-68
2023/06/12 11:19:06;;;;;;;11.70;0.60;;;;;;;15.92;59.26;101143.13;107404;1254;98472;-70
2023/06/12 11:21:38;;;;;;;4.40;0.60;;;;;;;15.86;59.31;101137.61;107315;1254;112566;-69
2023/06/12 11:24:13;;;;;;;3.50;0.50;;;;;;;15.82;59.34;101136.75;107362;1255;109852;-69
2023/06/12 11:26:42;;;;;;;2.00;0.40;;;;;;;15.74;59.34;101138.43;107362;1256;108603;-69
2023/06/12 11:29:18;;;;;;;1.30;0.40;;;;;;;15.70;59.46;101139.23;107186;1254;97832;-70